Time;durP1;ratioP1;P1;durP2;ratioP2;P2;SDS_P1;SDS_P2;PMS_P1;PMS_P2;Temp;Humidity;BMP_temperature;BMP_pressure;BME280_temperature;BME280_humidity;BME280_pressure;Samples;Min_cycle;Max_cycle;Signal;HPM_P1;HPM_P2
2022/11/18 00:01:06;;;;;;;1.73;1.63;;;6.60;99.90;;;;;;5055618;28;20052;-78
2022/11/18 00:03:33;;;;;;;1.33;1.23;;;6.60;99.90;;;;;;5075305;28;20052;-77
2022/11/18 00:05:59;;;;;;;0.82;0.80;;;6.60;99.90;;;;;;5074364;28;20063;-78
2022/11/18 00:08:25;;;;;;;3.28;1.98;;;6.60;99.90;;;;;;5074569;28;20056;-78
2022/11/18 00:10:51;;;;;;;1.75;1.58;;;6.70;99.90;;;;;;5041537;28;20135;-78
2022/11/18 00:16:10;;;;;;;4.32;2.72;;;6.60;99.90;;;;;;5054392;28;20061;-79
2022/11/18 00:18:36;;;;;;;0.60;0.60;;;6.60;99.90;;;;;;5057850;28;20041;-78
2022/11/18 00:21:03;;;;;;;0.88;0.85;;;6.60;99.90;;;;;;5053802;28;20071;-79
2022/11/18 00:23:29;;;;;;;1.33;1.23;;;6.60;99.90;;;;;;5053246;28;20045;-79
2022/11/18 00:25:55;;;;;;;2.00;1.80;;;6.60;99.90;;;;;;5053963;28;20074;-78
2022/11/18 00:28:20;;;;;;;2.60;1.70;;;6.60;99.90;;;;;;5056753;28;20044;-79
2022/11/18 00:30:46;;;;;;;2.85;1.67;;;6.60;99.90;;;;;;5063123;28;20108;-78
2022/11/18 00:33:11;;;;;;;1.20;0.88;;;6.60;99.90;;;;;;5072837;28;20055;-78
2022/11/18 00:35:37;;;;;;;2.55;1.65;;;6.60;99.90;;;;;;5073286;28;20056;-78
2022/11/18 00:38:03;;;;;;;2.10;1.92;;;6.60;99.90;;;;;;5071364;28;20459;-78
2022/11/18 00:40:28;;;;;;;3.15;1.55;;;6.60;99.90;;;;;;5073062;28;20064;-79
2022/11/18 00:42:55;;;;;;;2.20;1.35;;;6.60;99.90;;;;;;5073808;28;20048;-78
2022/11/18 00:45:21;;;;;;;4.20;1.85;;;6.60;99.90;;;;;;5073900;28;20056;-78
2022/11/18 00:47:47;;;;;;;1.58;1.05;;;6.60;99.90;;;;;;5066374;28;20064;-77
2022/11/18 00:50:13;;;;;;;4.18;2.58;;;6.60;99.90;;;;;;5060087;28;20502;-77
2022/11/18 00:52:38;;;;;;;0.90;0.73;;;6.60;99.90;;;;;;5073515;28;20048;-78
2022/11/18 00:55:04;;;;;;;0.80;0.77;;;6.60;99.90;;;;;;5072650;28;20048;-79
2022/11/18 00:57:30;;;;;;;2.17;1.90;;;6.60;99.90;;;;;;5071592;28;20046;-78
2022/11/18 00:59:55;;;;;;;2.53;1.58;;;6.60;99.90;;;;;;5050430;28;20491;-77
2022/11/18 01:02:21;;;;;;;1.38;1.27;;;6.60;99.90;;;;;;5053875;28;20044;-79
2022/11/18 01:04:47;;;;;;;1.60;1.00;;;6.80;99.90;;;;;;5053851;28;20052;-78
2022/11/18 01:07:12;;;;;;;1.60;1.50;;;6.60;99.90;;;;;;5054492;28;20467;-77
2022/11/18 01:09:38;;;;;;;1.80;1.42;;;6.60;99.90;;;;;;5074098;28;20049;-78
2022/11/18 01:14:48;;;;;;;2.55;1.45;;;6.60;99.90;;;;;;5072997;28;20052;-77
2022/11/18 01:17:14;;;;;;;1.27;1.13;;;6.60;99.90;;;;;;5072181;28;20104;-78
2022/11/18 01:19:40;;;;;;;1.95;1.83;;;6.60;99.90;;;;;;5056355;28;20051;-78
2022/11/18 01:22:05;;;;;;;0.98;0.90;;;6.60;99.90;;;;;;5061809;28;20171;-77
2022/11/18 01:24:32;;;;;;;1.60;1.35;;;6.60;99.90;;;;;;5053187;28;20056;-78
2022/11/18 01:27:00;;;;;;;2.60;1.25;;;6.60;99.90;;;;;;5053889;28;20133;-78
2022/11/18 01:29:25;;;;;;;2.80;1.67;;;6.60;99.90;;;;;;5072877;28;20037;-78
2022/11/18 01:31:51;;;;;;;1.52;1.17;;;6.60;99.90;;;;;;5073031;28;20469;-78
2022/11/18 01:34:17;;;;;;;1.02;0.95;;;6.60;99.90;;;;;;5072282;28;20067;-77
2022/11/18 01:36:42;;;;;;;2.42;2.10;;;6.60;99.90;;;;;;5073677;28;20079;-77
2022/11/18 01:39:08;;;;;;;1.50;1.40;;;6.50;99.90;;;;;;5059414;28;20045;-78
2022/11/18 01:41:34;;;;;;;0.50;0.50;;;6.50;99.90;;;;;;5072648;28;20037;-77
2022/11/18 01:44:05;;;;;;;2.97;2.55;;;6.50;99.90;;;;;;5056501;28;20174;-78
2022/11/18 01:46:34;;;;;;;1.15;1.05;;;6.50;99.90;;;;;;5056569;28;20056;-77
2022/11/18 01:49:09;;;;;;;1.75;1.35;;;6.50;99.90;;;;;;5056134;28;20049;-79
2022/11/18 01:51:50;;;;;;;1.02;1.02;;;6.50;99.90;;;;;;5056534;28;20049;-77
2022/11/18 01:54:39;;;;;;;2.85;1.38;;;6.50;99.90;;;;;;5057158;28;20056;-79
2022/11/18 01:57:11;;;;;;;0.95;0.88;;;6.50;99.90;;;;;;5058211;28;20871;-78
2022/11/18 01:59:39;;;;;;;1.27;1.10;;;6.50;99.90;;;;;;5056747;28;20063;-78
2022/11/18 02:02:09;;;;;;;1.38;1.27;;;6.50;99.90;;;;;;5057380;28;20041;-78
2022/11/18 02:04:35;;;;;;;3.83;3.05;;;6.50;99.90;;;;;;5061449;28;20049;-78
2022/11/18 02:07:01;;;;;;;2.28;1.88;;;6.50;99.90;;;;;;5054769;28;20498;-78
2022/11/18 02:09:26;;;;;;;1.23;0.65;;;6.50;99.90;;;;;;5055494;28;20059;-79
2022/11/18 02:11:55;;;;;;;1.73;1.48;;;6.50;99.90;;;;;;5071759;28;20107;-78
2022/11/18 02:14:28;;;;;;;3.15;2.85;;;6.50;99.90;;;;;;5075224;28;20039;-78
2022/11/18 02:17:17;;;;;;;2.92;2.20;;;6.50;99.90;;;;;;5075792;28;20086;-78
2022/11/18 02:19:46;;;;;;;0.73;0.73;;;6.50;99.90;;;;;;5075781;28;20102;-79
2022/11/18 02:22:49;;;;;;;1.77;1.67;;;6.50;99.90;;;;;;5055997;28;20102;-78
2022/11/18 02:25:23;;;;;;;3.45;0.85;;;6.50;99.90;;;;;;5021808;28;20107;-78
2022/11/18 02:28:23;;;;;;;2.40;1.73;;;6.50;99.90;;;;;;5057047;28;20103;-79
2022/11/18 02:30:59;;;;;;;1.95;1.58;;;6.50;99.90;;;;;;5046045;28;20056;-79
2022/11/18 02:34:05;;;;;;;1.23;1.13;;;6.50;99.90;;;;;;5074766;28;20087;-78
2022/11/18 02:36:38;;;;;;;0.60;0.57;;;6.50;99.90;;;;;;5056310;28;20067;-78
2022/11/18 02:39:09;;;;;;;1.60;1.38;;;6.50;99.90;;;;;;5075370;28;20108;-77
2022/11/18 02:41:38;;;;;;;1.23;1.13;;;6.50;99.90;;;;;;5060519;28;20048;-77
2022/11/18 02:44:12;;;;;;;2.28;2.08;;;6.40;99.90;;;;;;5053917;28;20048;-77
2022/11/18 02:46:39;;;;;;;0.77;0.70;;;6.40;99.90;;;;;;5054936;28;20051;-77
2022/11/18 02:49:40;;;;;;;0.93;0.80;;;6.40;99.90;;;;;;5051482;28;20076;-77
2022/11/18 02:52:09;;;;;;;0.98;0.98;;;6.40;99.90;;;;;;5028857;28;20105;-78
2022/11/18 02:54:37;;;;;;;2.15;1.33;;;6.40;99.90;;;;;;5075008;28;20048;-78
2022/11/18 02:57:04;;;;;;;0.25;0.25;;;6.40;99.90;;;;;;5093578;28;20072;-77
2022/11/18 02:59:30;;;;;;;0.20;0.20;;;7.20;99.90;;;;;;5093678;28;20048;-77
2022/11/18 03:01:56;;;;;;;2.45;1.80;;;6.40;99.90;;;;;;5057510;28;20128;-78
2022/11/18 03:04:24;;;;;;;1.50;1.40;;;6.40;99.90;;;;;;5053307;28;20052;-77
2022/11/18 03:07:12;;;;;;;2.22;1.67;;;6.40;99.90;;;;;;5061792;28;20049;-77
2022/11/18 03:09:41;;;;;;;7.10;2.47;;;6.60;99.90;;;;;;5073008;28;20052;-76
2022/11/18 03:12:35;;;;;;;2.25;1.85;;;6.30;99.90;;;;;;5073391;28;20144;-77
2022/11/18 03:15:35;;;;;;;3.50;1.88;;;6.40;99.90;;;;;;5073516;28;20044;-77
2022/11/18 03:18:32;;;;;;;3.63;2.63;;;6.40;99.90;;;;;;5073734;28;20541;-78
2022/11/18 03:21:16;;;;;;;4.67;1.77;;;6.30;99.90;;;;;;5072345;28;20088;-78
2022/11/18 03:24:12;;;;;;;1.00;0.90;;;6.30;99.90;;;;;;5054278;28;20060;-78
2022/11/18 03:26:41;;;;;;;1.33;1.23;;;6.30;99.90;;;;;;5072522;28;20059;-79
2022/11/18 03:29:16;;;;;;;1.92;1.55;;;6.30;99.90;;;;;;5072968;28;20056;-77
2022/11/18 03:31:52;;;;;;;0.97;0.97;;;6.30;99.90;;;;;;5058365;28;20067;-77
2022/11/18 03:34:33;;;;;;;2.08;1.88;;;6.30;99.90;;;;;;5052704;28;20052;-78
2022/11/18 03:37:02;;;;;;;0.85;0.75;;;6.30;99.90;;;;;;5052553;28;20549;-78
2022/11/18 03:39:31;;;;;;;2.03;1.83;;;6.30;99.90;;;;;;5053629;28;20048;-77
2022/11/18 03:42:09;;;;;;;0.95;0.55;;;6.20;99.90;;;;;;5068401;28;20072;-77
2022/11/18 03:44:37;;;;;;;2.38;1.45;;;6.30;99.90;;;;;;5072923;28;20048;-78
2022/11/18 03:47:12;;;;;;;0.20;0.20;;;6.20;99.90;;;;;;5072931;28;20320;-77
2022/11/18 03:49:49;;;;;;;0.57;0.45;;;6.20;99.90;;;;;;5072493;28;20044;-79
2022/11/18 03:52:22;;;;;;;2.13;1.77;;;6.20;99.90;;;;;;5052972;28;20048;-77
2022/11/18 03:54:51;;;;;;;0.82;0.70;;;6.20;99.90;;;;;;5053084;28;20045;-77
2022/11/18 03:57:29;;;;;;;1.75;0.75;;;6.20;99.90;;;;;;5051706;28;20053;-78
2022/11/18 04:00:04;;;;;;;1.55;1.45;;;6.20;99.90;;;;;;5052200;28;20052;-76
2022/11/18 04:02:30;;;;;;;0.98;0.60;;;6.20;99.90;;;;;;5033231;28;20098;-78
2022/11/18 04:04:58;;;;;;;2.28;2.08;;;6.20;99.90;;;;;;5051409;28;20049;-77
2022/11/18 04:08:02;;;;;;;3.20;2.60;;;6.20;99.90;;;;;;5050068;28;20048;-77
2022/11/18 04:10:30;;;;;;;4.22;2.10;;;6.20;99.90;;;;;;5047417;28;20060;-77
2022/11/18 04:13:06;;;;;;;1.23;1.13;;;6.20;99.90;;;;;;5053785;28;20474;-77
2022/11/18 04:15:32;;;;;;;1.60;1.45;;;6.20;99.90;;;;;;5051956;28;20151;-78
2022/11/18 04:17:58;;;;;;;1.88;1.73;;;6.20;99.90;;;;;;5050784;28;20080;-77
2022/11/18 04:20:25;;;;;;;0.93;0.90;;;6.20;99.90;;;;;;5053167;28;20091;-77
2022/11/18 04:22:51;;;;;;;0.98;0.57;;;6.20;99.90;;;;;;5071653;28;20132;-78
2022/11/18 04:25:16;;;;;;;0.77;0.77;;;6.20;99.90;;;;;;5055702;28;20068;-77
2022/11/18 04:27:42;;;;;;;1.10;0.98;;;6.10;99.90;;;;;;5050534;28;20041;-78
2022/11/18 04:30:08;;;;;;;0.20;0.20;;;6.10;99.90;;;;;;5050268;28;20045;-78
2022/11/18 04:32:34;;;;;;;1.88;1.35;;;6.10;99.90;;;;;;5052097;28;20057;-78
2022/11/18 04:35:00;;;;;;;2.08;1.48;;;7.10;99.90;;;;;;5052035;28;20055;-78
2022/11/18 04:37:25;;;;;;;1.25;1.13;;;6.10;99.90;;;;;;5051974;28;20407;-78
2022/11/18 04:39:51;;;;;;;5.05;1.75;;;6.10;99.90;;;;;;5051408;28;21018;-77
2022/11/18 04:42:17;;;;;;;0.85;0.85;;;6.10;99.90;;;;;;5070626;28;20474;-77
2022/11/18 04:44:42;;;;;;;2.85;2.50;;;6.10;99.90;;;;;;5071396;28;20066;-78
2022/11/18 04:47:08;;;;;;;0.47;0.47;;;6.10;99.90;;;;;;5070086;28;20045;-77
2022/11/18 04:49:34;;;;;;;1.63;1.17;;;6.00;99.90;;;;;;5071629;28;20140;-78
2022/11/18 04:52:02;;;;;;;0.32;0.32;;;6.10;99.90;;;;;;5069504;28;20036;-78
2022/11/18 04:54:27;;;;;;;1.40;1.05;;;6.00;99.90;;;;;;5067248;28;20050;-78
2022/11/18 04:56:54;;;;;;;1.17;1.08;;;6.00;99.90;;;;;;5049559;28;20053;-78
2022/11/18 04:59:23;;;;;;;5.55;1.83;;;6.00;99.90;;;;;;5049743;28;20048;-77
2022/11/18 05:01:50;;;;;;;1.33;1.23;;;6.00;99.90;;;;;;5051217;28;20045;-78
2022/11/18 05:04:18;;;;;;;2.35;0.95;;;6.00;99.90;;;;;;5032586;28;20053;-77
2022/11/18 05:06:44;;;;;;;0.60;0.60;;;6.00;99.90;;;;;;5051081;28;20068;-78
2022/11/18 05:09:10;;;;;;;1.33;1.23;;;6.10;99.90;;;;;;5029605;28;20134;-78
2022/11/18 05:14:20;;;;;;;1.08;0.93;;;6.00;99.90;;;;;;5049859;28;20057;-77
2022/11/18 05:16:46;;;;;;;1.08;0.98;;;6.00;99.90;;;;;;5051580;28;20051;-78
2022/11/18 05:19:11;;;;;;;1.77;1.30;;;6.00;99.90;;;;;;5055923;28;20040;-77
2022/11/18 05:21:37;;;;;;;0.45;0.43;;;6.00;99.90;;;;;;5071996;28;20086;-78
2022/11/18 05:24:04;;;;;;;2.33;1.65;;;6.00;99.90;;;;;;5070929;28;20051;-77
2022/11/18 05:26:29;;;;;;;2.15;1.95;;;6.00;99.90;;;;;;5071684;28;20490;-77
2022/11/18 05:28:55;;;;;;;2.80;2.08;;;5.90;99.90;;;;;;5071513;28;20051;-78
2022/11/18 05:31:21;;;;;;;1.10;0.73;;;5.90;99.90;;;;;;5062402;28;20052;-77
2022/11/18 05:33:47;;;;;;;0.60;0.57;;;5.90;99.90;;;;;;5050443;28;20049;-78
2022/11/18 05:36:15;;;;;;;3.33;2.03;;;5.90;99.90;;;;;;5033865;28;20464;-78
2022/11/18 05:38:41;;;;;;;1.10;1.02;;;5.90;99.90;;;;;;5050201;28;20041;-78
2022/11/18 05:41:08;;;;;;;1.30;1.20;;;5.90;99.90;;;;;;5056514;28;20090;-78
2022/11/18 05:43:35;;;;;;;0.77;0.70;;;5.90;99.90;;;;;;5054014;28;20091;-80
2022/11/18 05:46:02;;;;;;;1.17;1.08;;;5.90;99.90;;;;;;5071916;28;20063;-78
2022/11/18 05:48:28;;;;;;;11.75;1.55;;;5.90;99.90;;;;;;5053573;28;20608;-78
2022/11/18 05:50:54;;;;;;;0.40;0.40;;;5.90;99.90;;;;;;5066787;28;20033;-78
2022/11/18 05:53:23;;;;;;;1.20;1.10;;;5.90;99.90;;;;;;5051203;28;20487;-78
2022/11/18 05:56:19;;;;;;;3.22;1.58;;;5.90;99.90;;;;;;5051101;28;20044;-79
2022/11/18 05:58:45;;;;;;;2.38;1.75;;;5.90;99.90;;;;;;5049426;28;20044;-78
2022/11/18 06:01:14;;;;;;;1.00;0.95;;;5.80;99.90;;;;;;5047045;28;20430;-77
2022/11/18 06:03:41;;;;;;;0.52;0.47;;;5.80;99.90;;;;;;5048295;28;20601;-78
2022/11/18 06:06:09;;;;;;;0.70;0.70;;;5.80;99.90;;;;;;5049397;28;20499;-78
2022/11/18 06:08:39;;;;;;;2.80;1.88;;;5.80;99.90;;;;;;5061036;28;20586;-78
2022/11/18 06:11:10;;;;;;;1.65;1.52;;;5.80;99.90;;;;;;5068430;28;20048;-78
2022/11/18 06:13:50;;;;;;;1.02;1.02;;;5.80;99.90;;;;;;5049640;28;20056;-77
2022/11/18 06:16:18;;;;;;;1.35;0.90;;;5.80;99.90;;;;;;5047340;28;20044;-77
2022/11/18 06:18:44;;;;;;;1.60;1.23;;;5.80;99.90;;;;;;5047241;28;20337;-77
2022/11/18 06:21:10;;;;;;;1.58;0.80;;;5.80;99.90;;;;;;5051263;28;20048;-77
2022/11/18 06:23:38;;;;;;;2.05;1.83;;;5.80;99.90;;;;;;5051859;28;20048;-78
2022/11/18 06:26:04;;;;;;;0.95;0.80;;;5.80;99.90;;;;;;5054564;28;20044;-78
2022/11/18 06:28:30;;;;;;;1.63;1.52;;;5.80;99.90;;;;;;5031469;28;20505;-78
2022/11/18 06:30:55;;;;;;;3.42;1.60;;;6.20;99.90;;;;;;5050385;28;20052;-79
2022/11/18 06:33:21;;;;;;;0.10;0.10;;;5.80;99.90;;;;;;5049047;28;20037;-78
2022/11/18 06:35:46;;;;;;;0.65;0.65;;;5.80;99.90;;;;;;5049034;28;20566;-79
2022/11/18 06:38:12;;;;;;;3.30;1.73;;;5.80;99.90;;;;;;5031195;28;20045;-79
2022/11/18 06:40:37;;;;;;;1.27;1.15;;;5.80;99.90;;;;;;5049734;28;20053;-78
2022/11/18 06:48:36;;;;;;;4.03;2.03;;;5.80;99.90;;;;;;5049441;28;20057;-78
2022/11/18 06:51:06;;;;;;;6.32;3.15;;;5.80;99.90;;;;;;5049694;28;20049;-78
2022/11/18 06:53:33;;;;;;;5.40;2.05;;;5.70;99.90;;;;;;5049073;28;20087;-79
2022/11/18 06:56:03;;;;;;;1.80;1.67;;;5.70;99.90;;;;;;5031992;28;20619;-78
2022/11/18 06:58:29;;;;;;;7.43;1.80;;;5.70;99.90;;;;;;5031568;28;20053;-78
2022/11/18 07:00:54;;;;;;;0.85;0.85;;;6.10;99.90;;;;;;5049461;28;20071;-77
2022/11/18 07:03:20;;;;;;;1.88;1.60;;;5.70;99.90;;;;;;5050890;28;20049;-78
2022/11/18 07:05:45;;;;;;;0.50;0.50;;;5.80;99.90;;;;;;5049089;28;20037;-77
2022/11/18 07:08:11;;;;;;;2.63;1.30;;;5.70;99.90;;;;;;5049239;28;20482;-79
2022/11/18 07:10:37;;;;;;;1.05;0.98;;;5.70;99.90;;;;;;5048918;28;20521;-78
2022/11/18 07:13:02;;;;;;;0.28;0.28;;;5.70;99.90;;;;;;5049007;28;20092;-78
2022/11/18 07:15:28;;;;;;;1.15;1.05;;;5.70;99.90;;;;;;5047519;28;20047;-78
2022/11/18 07:17:54;;;;;;;1.58;1.33;;;5.70;99.90;;;;;;5047158;28;20052;-79
2022/11/18 07:20:19;;;;;;;1.65;1.55;;;5.70;99.90;;;;;;5029431;28;20141;-78
2022/11/18 07:22:45;;;;;;;3.92;1.55;;;5.70;99.90;;;;;;5046908;28;20435;-77
2022/11/18 07:25:10;;;;;;;0.80;0.80;;;5.70;99.90;;;;;;5047433;28;20071;-78
2022/11/18 07:27:36;;;;;;;0.43;0.43;;;5.60;99.90;;;;;;5047163;28;20045;-78
2022/11/18 07:30:02;;;;;;;17.83;1.58;;;5.60;99.90;;;;;;5046333;28;20072;-79
2022/11/18 07:32:28;;;;;;;1.70;1.55;;;5.70;99.90;;;;;;5028970;28;20060;-78
2022/11/18 07:34:53;;;;;;;1.60;1.50;;;5.60;99.90;;;;;;5047235;28;20049;-79
2022/11/18 07:37:19;;;;;;;1.63;1.30;;;5.70;99.90;;;;;;5045574;28;20053;-79
2022/11/18 07:39:44;;;;;;;0.32;0.32;;;5.90;99.90;;;;;;5056215;28;20403;-78
2022/11/18 07:42:10;;;;;;;0.35;0.35;;;5.70;99.90;;;;;;5066362;28;20039;-79
2022/11/18 07:44:36;;;;;;;2.00;1.33;;;5.70;99.90;;;;;;5047666;28;20044;-78
2022/11/18 07:47:01;;;;;;;1.73;0.85;;;5.70;99.90;;;;;;5066485;28;20041;-78
2022/11/18 07:49:27;;;;;;;0.75;0.75;;;5.70;99.90;;;;;;5064951;28;20047;-79
2022/11/18 07:51:53;;;;;;;1.98;1.83;;;5.70;99.90;;;;;;5066351;28;20086;-78
2022/11/18 07:54:19;;;;;;;0.20;0.20;;;5.70;99.90;;;;;;5067062;28;20418;-79
2022/11/18 07:56:44;;;;;;;1.08;0.95;;;5.70;99.90;;;;;;5067874;28;20044;-77
2022/11/18 07:59:10;;;;;;;0.88;0.60;;;5.70;99.90;;;;;;5067345;28;20484;-78
2022/11/18 08:02:05;;;;;;;0.45;0.45;;;5.70;99.90;;;;;;5112451;22;20043;-88
2022/11/18 08:04:32;;;;;;;0.88;0.88;;;5.20;99.90;;;;;;5066949;28;20057;-87
2022/11/18 08:07:01;;;;;;;5.95;2.13;;;6.40;99.90;;;;;;5056229;28;20071;-87
2022/11/18 08:09:36;;;;;;;3.00;2.63;;;5.70;99.90;;;;;;5055633;28;20677;-87
2022/11/18 08:12:02;;;;;;;0.25;0.25;;;6.50;99.90;;;;;;5056329;28;20090;-87
2022/11/18 08:14:29;;;;;;;1.85;1.70;;;5.70;99.90;;;;;;5055462;28;20030;-87
2022/11/18 08:16:57;;;;;;;2.63;1.63;;;5.70;99.90;;;;;;5055249;28;20052;-86
2022/11/18 08:19:32;;;;;;;0.40;0.40;;;5.70;99.90;;;;;;5071856;28;20048;-88
2022/11/18 08:22:00;;;;;;;1.52;1.27;;;6.20;99.90;;;;;;5071787;28;20040;-87
2022/11/18 08:24:32;;;;;;;1.25;1.15;;;6.00;99.90;;;;;;5054245;28;20056;-87
2022/11/18 08:26:58;;;;;;;0.45;0.45;;;6.50;99.90;;;;;;5055034;28;20096;-87
2022/11/18 08:29:24;;;;;;;0.17;0.17;;;6.30;99.90;;;;;;5071551;28;20055;-86
2022/11/18 08:31:49;;;;;;;0.88;0.60;;;6.30;99.90;;;;;;5054365;28;20043;-87
2022/11/18 08:34:15;;;;;;;3.95;1.67;;;5.30;99.90;;;;;;5055113;28;20056;-86
2022/11/18 08:36:42;;;;;;;0.25;0.25;;;6.70;99.90;;;;;;5069739;28;20044;-85
2022/11/18 08:39:10;;;;;;;0.20;0.20;;;6.70;99.90;;;;;;5051150;28;20132;-86
2022/11/18 08:41:39;;;;;;;2.03;1.52;;;5.70;99.90;;;;;;5051108;28;20588;-87
2022/11/18 08:44:06;;;;;;;2.55;1.75;;;6.60;99.90;;;;;;5069350;28;20051;-86
2022/11/18 08:46:35;;;;;;;1.67;1.02;;;5.40;99.90;;;;;;5070637;28;20048;-88
2022/11/18 08:49:00;;;;;;;1.85;0.55;;;6.60;99.90;;;;;;5069862;28;20064;-87
2022/11/18 08:51:29;;;;;;;0.45;0.45;;;5.80;99.90;;;;;;5052620;28;20059;-87
2022/11/18 08:53:55;;;;;;;3.38;2.78;;;6.40;99.90;;;;;;5052748;28;20078;-86
2022/11/18 08:56:22;;;;;;;0.25;0.25;;;6.30;99.90;;;;;;5053135;28;20051;-87
2022/11/18 08:58:48;;;;;;;8.02;1.58;;;6.70;99.90;;;;;;5053145;28;20052;-86
2022/11/18 09:01:14;;;;;;;1.70;1.58;;;5.40;99.90;;;;;;5067354;28;20068;-88
2022/11/18 09:03:44;;;;;;;1.15;1.10;;;5.80;99.90;;;;;;5084437;28;20109;-87
2022/11/18 09:06:16;;;;;;;0.10;0.10;;;5.80;99.90;;;;;;5051107;28;20059;-86
2022/11/18 09:08:43;;;;;;;0.77;0.77;;;5.80;99.90;;;;;;5051311;28;20048;-87
2022/11/18 09:11:11;;;;;;;1.13;0.63;;;6.10;99.90;;;;;;5068035;28;20025;-87
2022/11/18 09:13:37;;;;;;;1.08;1.05;;;6.10;99.90;;;;;;5084851;28;20098;-87
2022/11/18 09:16:07;;;;;;;0.63;0.63;;;6.40;99.90;;;;;;5050690;28;20370;-86
2022/11/18 09:18:33;;;;;;;0.93;0.57;;;5.70;99.90;;;;;;5068326;28;20049;-86
2022/11/18 09:21:05;;;;;;;0.57;0.38;;;6.20;99.90;;;;;;5068119;28;20100;-86
2022/11/18 09:23:32;;;;;;;0.30;0.30;;;5.70;99.90;;;;;;5068766;28;20037;-87
2022/11/18 09:26:00;;;;;;;1.73;1.58;;;5.60;99.90;;;;;;5049179;28;20048;-86
2022/11/18 09:28:26;;;;;;;0.77;0.77;;;6.30;99.90;;;;;;5078706;22;20128;-78
2022/11/18 09:30:52;;;;;;;0.47;0.47;;;5.50;99.90;;;;;;5064031;28;20555;-78
2022/11/18 09:33:17;;;;;;;1.95;1.75;;;5.50;99.90;;;;;;5084375;28;20125;-77
2022/11/18 09:35:43;;;;;;;1.15;1.05;;;5.50;99.90;;;;;;5084595;28;20093;-78
2022/11/18 09:38:09;;;;;;;0.93;0.93;;;5.50;99.90;;;;;;5084937;28;20048;-78
2022/11/18 09:40:51;;;;;;;1.15;0.50;;;5.60;99.90;;;;;;5084035;28;20051;-79
2022/11/18 09:43:24;;;;;;;10.38;1.08;;;5.60;99.90;;;;;;5083643;28;20063;-78
2022/11/18 09:45:57;;;;;;;1.45;1.10;;;5.60;99.90;;;;;;5084076;28;20048;-79
2022/11/18 09:51:35;;;;;;;1.80;1.58;;;5.50;99.90;;;;;;4984425;28;20643;-79
2022/11/18 09:54:01;;;;;;;0.90;0.90;;;5.50;99.90;;;;;;5075026;28;20059;-81
2022/11/18 09:56:27;;;;;;;1.05;0.95;;;5.50;99.90;;;;;;5092272;28;20040;-79
2022/11/18 09:58:56;;;;;;;0.50;0.50;;;5.50;99.90;;;;;;5094695;28;20501;-79
2022/11/18 10:01:22;;;;;;;0.60;0.45;;;5.60;99.90;;;;;;5102354;28;20064;-80
2022/11/18 10:03:48;;;;;;;1.25;1.17;;;5.60;99.90;;;;;;5085610;28;20590;-79
2022/11/18 10:06:23;;;;;;;1.52;1.42;;;5.50;99.90;;;;;;5077817;28;20076;-79
2022/11/18 10:09:21;;;;;;;1.27;1.23;;;5.40;99.90;;;;;;5078788;28;20076;-80
2022/11/18 10:12:10;;;;;;;1.10;1.05;;;5.40;99.90;;;;;;5077007;28;20362;-78
2022/11/18 10:14:54;;;;;;;3.20;1.88;;;5.30;99.90;;;;;;5075011;28;20559;-79
2022/11/18 10:17:53;;;;;;;7.22;1.55;;;5.30;99.90;;;;;;5076970;28;20061;-78
2022/11/18 10:20:22;;;;;;;1.08;0.98;;;5.20;99.90;;;;;;5066601;28;20048;-80
2022/11/18 10:22:53;;;;;;;2.28;0.93;;;5.20;99.90;;;;;;5055100;28;20048;-78
2022/11/18 10:25:20;;;;;;;1.83;1.08;;;5.10;99.90;;;;;;5057690;28;20056;-78
2022/11/18 10:27:49;;;;;;;2.28;2.08;;;5.10;99.90;;;;;;5069361;28;20063;-78
2022/11/18 10:30:26;;;;;;;2.67;1.98;;;5.10;99.90;;;;;;5070273;28;20424;-80
2022/11/18 10:32:53;;;;;;;2.88;1.45;;;5.10;99.90;;;;;;5039212;28;20052;-78
2022/11/18 10:35:37;;;;;;;1.65;1.27;;;5.00;99.90;;;;;;5075865;28;20045;-79
2022/11/18 10:38:12;;;;;;;1.48;1.38;;;5.20;99.90;;;;;;5060791;28;20043;-78
2022/11/18 10:41:00;;;;;;;0.22;0.22;;;5.10;99.90;;;;;;5067614;28;20060;-78
2022/11/18 10:43:45;;;;;;;2.20;1.55;;;5.10;99.90;;;;;;5051987;28;20063;-78
2022/11/18 10:46:29;;;;;;;1.55;1.45;;;5.00;99.90;;;;;;5076883;28;20113;-79
2022/11/18 10:49:16;;;;;;;0.95;0.93;;;5.10;99.90;;;;;;5089262;28;20058;-79
2022/11/18 10:51:47;;;;;;;3.33;1.85;;;5.10;99.90;;;;;;5087902;28;20055;-80
2022/11/18 10:54:19;;;;;;;1.55;1.20;;;5.10;99.90;;;;;;5086386;28;20398;-79
2022/11/18 10:57:03;;;;;;;3.65;2.70;;;5.00;99.90;;;;;;5073224;28;20687;-79
2022/11/18 10:59:31;;;;;;;2.67;1.10;;;5.00;99.90;;;;;;5067963;28;20576;-79
2022/11/18 11:02:24;;;;;;;1.33;1.23;;;5.00;99.90;;;;;;5075646;28;20067;-79
2022/11/18 11:04:51;;;;;;;1.35;1.23;;;5.00;99.90;;;;;;5077870;28;20060;-78
2022/11/18 11:07:36;;;;;;;1.50;1.40;;;5.00;99.90;;;;;;5076309;28;20527;-79
2022/11/18 11:10:11;;;;;;;1.10;1.05;;;4.90;99.90;;;;;;5078348;28;20067;-79
2022/11/18 11:12:52;;;;;;;0.28;0.22;;;4.90;99.90;;;;;;5080235;28;20123;-80
2022/11/18 11:15:26;;;;;;;0.63;0.63;;;4.90;99.90;;;;;;5080016;28;20041;-79
2022/11/18 11:20:42;;;;;;;3.40;1.85;;;4.80;99.90;;;;;;5077998;28;20047;-79
2022/11/18 11:23:13;;;;;;;1.88;1.15;;;4.80;99.90;;;;;;5075964;28;20045;-79
2022/11/18 11:25:55;;;;;;;0.60;0.60;;;4.80;99.90;;;;;;5079615;28;20051;-79
2022/11/18 11:28:40;;;;;;;3.08;1.70;;;4.70;99.90;;;;;;5079873;28;20442;-79
2022/11/18 11:31:26;;;;;;;1.02;1.00;;;4.70;99.90;;;;;;5079543;28;20040;-79
2022/11/18 11:34:24;;;;;;;1.48;1.38;;;4.70;99.90;;;;;;5079397;28;20114;-79
2022/11/18 11:37:01;;;;;;;2.05;0.80;;;4.70;99.90;;;;;;5061305;28;20119;-78
2022/11/18 11:39:45;;;;;;;1.33;1.25;;;4.70;99.90;;;;;;5077534;28;20068;-78
2022/11/18 11:42:38;;;;;;;5.78;2.28;;;4.60;99.90;;;;;;5077457;28;20036;-79
2022/11/18 11:45:18;;;;;;;5.05;2.55;;;4.60;99.90;;;;;;5077468;28;20049;-78
2022/11/18 11:47:55;;;;;;;1.65;1.55;;;4.50;99.90;;;;;;5077775;28;20072;-78
2022/11/18 11:50:52;;;;;;;1.45;1.23;;;4.50;99.90;;;;;;5076382;28;20119;-78
2022/11/18 11:53:42;;;;;;;0.80;0.80;;;4.50;99.90;;;;;;5076860;28;20503;-78
2022/11/18 11:56:19;;;;;;;3.03;1.33;;;4.50;99.90;;;;;;5076440;28;20048;-78
2022/11/18 11:58:54;;;;;;;0.80;0.80;;;4.50;99.90;;;;;;5042893;28;20133;-77
2022/11/18 12:02:13;;;;;;;0.63;0.63;;;4.40;99.90;;;;;;5076015;28;20048;-79
2022/11/18 12:04:53;;;;;;;0.20;0.20;;;4.30;99.90;;;;;;5035159;28;20057;-78
2022/11/18 12:07:26;;;;;;;9.90;1.83;;;4.30;99.90;;;;;;5077830;28;20495;-77
2022/11/18 12:10:20;;;;;;;1.27;1.17;;;4.30;99.90;;;;;;5076439;28;20122;-79
2022/11/18 12:12:54;;;;;;;2.83;1.20;;;4.30;99.90;;;;;;5076194;28;20044;-79
2022/11/18 12:15:47;;;;;;;1.40;1.00;;;4.30;99.90;;;;;;5076812;28;20048;-78
2022/11/18 12:18:25;;;;;;;0.35;0.35;;;4.30;99.90;;;;;;5061381;28;20048;-78
2022/11/18 12:20:54;;;;;;;4.05;2.47;;;4.30;99.90;;;;;;5078084;28;20376;-78
2022/11/18 12:23:28;;;;;;;0.70;0.68;;;4.30;99.90;;;;;;5078217;28;20040;-78
2022/11/18 12:25:57;;;;;;;3.08;2.78;;;4.30;99.90;;;;;;5076580;28;20040;-78
2022/11/18 12:28:34;;;;;;;1.38;1.17;;;4.20;99.90;;;;;;5078779;28;20058;-79
2022/11/18 12:31:18;;;;;;;1.90;1.50;;;4.20;99.90;;;;;;5058542;28;20044;-79
2022/11/18 12:34:03;;;;;;;2.58;2.35;;;4.10;99.90;;;;;;5076961;28;20094;-79
2022/11/18 12:36:31;;;;;;;1.63;1.52;;;4.00;99.90;;;;;;5083324;28;20048;-78
2022/11/18 12:39:18;;;;;;;2.75;2.50;;;4.00;99.90;;;;;;5082767;28;20063;-78
2022/11/18 12:44:29;;;;;;;2.92;2.53;;;4.10;99.90;;;;;;5075926;28;20048;-79
2022/11/18 12:46:56;;;;;;;3.70;2.28;;;4.00;99.90;;;;;;5073835;28;20153;-80
2022/11/18 12:49:22;;;;;;;1.88;1.70;;;3.90;99.90;;;;;;5075105;28;20041;-80
2022/11/18 12:51:48;;;;;;;5.85;2.58;;;4.00;99.90;;;;;;5076348;28;20056;-79
2022/11/18 12:54:29;;;;;;;1.58;1.48;;;4.00;99.90;;;;;;5076976;28;20051;-80
2022/11/18 12:56:59;;;;;;;3.08;2.00;;;3.90;99.90;;;;;;5083267;28;20067;-80
2022/11/18 12:59:34;;;;;;;2.20;1.00;;;4.00;99.90;;;;;;5080781;28;20049;-80
2022/11/18 13:02:04;;;;;;;0.65;0.65;;;4.00;99.90;;;;;;5080845;28;20051;-79
2022/11/18 13:04:30;;;;;;;1.30;1.23;;;4.00;99.90;;;;;;5078229;28;20059;-79
2022/11/18 13:06:59;;;;;;;2.75;1.55;;;3.90;99.90;;;;;;5080213;28;20564;-79
2022/11/18 13:09:28;;;;;;;2.55;2.10;;;3.90;99.90;;;;;;5080126;28;20483;-79
2022/11/18 13:11:59;;;;;;;1.58;1.48;;;3.90;99.90;;;;;;5075642;28;20067;-80
2022/11/18 13:20:32;;;;;;;2.97;1.75;;;3.90;99.90;;;;;;5060038;28;20056;-81
2022/11/18 13:25:46;;;;;;;1.52;1.42;;;3.80;99.90;;;;;;5066933;28;20056;-81
2022/11/18 13:28:27;;;;;;;0.55;0.55;;;3.80;99.90;;;;;;5083186;28;20075;-80
2022/11/18 13:30:59;;;;;;;1.45;1.33;;;3.80;99.90;;;;;;5079604;28;20052;-81
2022/11/18 13:33:25;;;;;;;1.13;1.02;;;3.70;99.90;;;;;;5085033;28;20098;-79
2022/11/18 13:35:50;;;;;;;2.10;1.90;;;3.70;99.90;;;;;;5084261;28;20044;-81
2022/11/18 13:38:23;;;;;;;0.70;0.70;;;3.70;99.90;;;;;;5064015;28;20044;-81
2022/11/18 13:41:06;;;;;;;0.80;0.80;;;3.70;99.90;;;;;;5066169;28;20052;-80
2022/11/18 13:43:35;;;;;;;1.17;1.08;;;3.70;99.90;;;;;;5071692;28;20033;-79
2022/11/18 13:46:13;;;;;;;1.23;0.63;;;3.60;99.90;;;;;;5088887;28;20048;-80
2022/11/18 13:48:55;;;;;;;0.68;0.63;;;3.70;99.90;;;;;;5083239;28;20096;-80
2022/11/18 13:51:22;;;;;;;2.22;1.15;;;3.60;99.90;;;;;;5083514;28;20415;-79